createdAt,value
2022-12-11T00:01:21.443Z,1.43
2022-12-11T00:03:44.242Z,1.40
2022-12-11T00:06:10.700Z,1.37
2022-12-11T00:08:32.828Z,1.39
2022-12-11T00:10:54.923Z,1.43
2022-12-11T00:13:17.219Z,1.45
2022-12-11T00:15:39.448Z,1.49
2022-12-11T00:18:01.669Z,1.51
2022-12-11T00:20:23.863Z,1.50
2022-12-11T00:22:45.996Z,1.50
2022-12-11T00:25:09.822Z,1.52
2022-12-11T00:27:32.097Z,1.54
2022-12-11T00:29:54.743Z,1.54
2022-12-11T00:32:17.086Z,1.56
2022-12-11T00:34:39.266Z,1.57
2022-12-11T00:37:02.424Z,1.59
2022-12-11T00:39:24.753Z,1.61
2022-12-11T00:41:46.960Z,1.61
2022-12-11T00:44:09.224Z,1.60
2022-12-11T00:46:31.629Z,1.58
2022-12-11T00:48:53.867Z,1.59
2022-12-11T00:51:18.271Z,1.60
2022-12-11T00:53:40.317Z,1.57
2022-12-11T00:56:02.454Z,1.54
2022-12-11T00:58:24.696Z,1.55
2022-12-11T01:00:48.355Z,1.57
2022-12-11T01:03:14.376Z,1.58
2022-12-11T01:05:36.813Z,1.56
2022-12-11T01:07:59.026Z,1.57
2022-12-11T01:10:24.239Z,1.59
2022-12-11T01:12:46.587Z,1.56
2022-12-11T01:15:09.415Z,1.53
2022-12-11T01:17:31.732Z,1.51
2022-12-11T01:19:55.095Z,1.49
2022-12-11T01:22:17.196Z,1.47
2022-12-11T01:24:39.243Z,1.48
2022-12-11T01:27:01.287Z,1.49
2022-12-11T01:29:23.364Z,1.48
2022-12-11T01:31:45.327Z,1.46
2022-12-11T01:34:07.370Z,1.44
2022-12-11T01:36:29.228Z,1.45
2022-12-11T01:38:51.536Z,1.44
2022-12-11T01:41:14.286Z,1.45
2022-12-11T01:44:08.476Z,1.50
2022-12-11T01:46:34.244Z,1.52
2022-12-11T01:48:57.986Z,1.53
2022-12-11T01:51:21.329Z,1.52
2022-12-11T01:53:55.130Z,1.49
2022-12-11T01:56:18.060Z,1.49
2022-12-11T01:59:07.173Z,1.48
2022-12-11T02:01:42.524Z,1.48
2022-12-11T02:04:07.675Z,1.49
2022-12-11T02:06:40.010Z,1.50
2022-12-11T02:09:05.602Z,1.52
2022-12-11T02:11:42.570Z,1.53
2022-12-11T02:14:19.262Z,1.52
2022-12-11T02:16:59.127Z,1.52
2022-12-11T02:19:48.073Z,1.53
2022-12-11T02:22:22.678Z,1.53
2022-12-11T02:25:20.852Z,1.57
2022-12-11T02:27:57.671Z,1.55
2022-12-11T02:30:19.927Z,1.55
2022-12-11T02:32:59.227Z,1.54
2022-12-11T02:35:33.547Z,1.55
2022-12-11T02:38:07.988Z,1.56
2022-12-11T02:40:35.413Z,1.53
2022-12-11T02:43:04.841Z,1.55
2022-12-11T02:45:29.036Z,1.57
2022-12-11T02:47:52.897Z,1.56
2022-12-11T02:50:20.590Z,1.58
2022-12-11T02:52:44.931Z,1.60
2022-12-11T02:55:12.901Z,1.61
2022-12-11T02:57:50.510Z,1.64
2022-12-11T03:00:13.654Z,1.62
2022-12-11T04:51:54.691Z,1.98
2022-12-11T04:54:23.461Z,1.95
2022-12-11T04:56:45.703Z,1.91
2022-12-11T04:59:08.218Z,1.91
2022-12-11T05:01:30.585Z,1.91
2022-12-11T05:03:53.011Z,1.92
2022-12-11T05:06:15.969Z,1.93
2022-12-11T05:08:41.387Z,1.93
2022-12-11T05:11:10.461Z,1.94
2022-12-11T05:13:33.035Z,1.92
2022-12-11T05:15:56.832Z,1.93
2022-12-11T05:18:19.313Z,1.93
2022-12-11T07:26:22.884Z,1.83
2022-12-11T07:28:45.664Z,1.84
2022-12-11T07:31:11.206Z,1.87
2022-12-11T07:33:34.416Z,1.89
2022-12-11T07:35:57.010Z,1.93
2022-12-11T07:38:19.344Z,1.95
2022-12-11T07:40:41.892Z,1.97
2022-12-11T07:43:04.472Z,1.98
2022-12-11T07:45:27.027Z,2.01
2022-12-11T07:47:49.435Z,2.04
2022-12-11T09:26:55.265Z,2.19
2022-12-11T09:29:17.531Z,2.22
2022-12-11T09:31:40.014Z,2.29
2022-12-11T09:34:06.967Z,2.34
2022-12-11T09:36:30.044Z,2.40
2022-12-11T09:38:52.897Z,2.45
2022-12-11T09:41:20.901Z,2.46
2022-12-11T09:43:52.867Z,2.45
2022-12-11T09:46:17.585Z,2.42
2022-12-11T09:48:45.530Z,2.41
2022-12-11T09:51:37.679Z,2.45
2022-12-11T09:54:04.885Z,2.48
2022-12-11T09:56:41.955Z,2.48
2022-12-11T09:59:17.041Z,2.47
2022-12-11T10:01:59.787Z,2.42
2022-12-11T10:04:50.335Z,2.41
2022-12-11T10:07:31.087Z,2.38
2022-12-11T10:10:12.032Z,2.39
2022-12-11T10:13:06.798Z,2.39
2022-12-11T10:15:40.434Z,2.37
2022-12-11T10:18:10.193Z,2.39
2022-12-11T10:20:40.827Z,2.39
2022-12-11T10:23:08.298Z,2.40
2022-12-11T10:25:40.833Z,2.43
2022-12-11T10:28:16.873Z,2.42
2022-12-11T10:30:49.235Z,2.40
2022-12-11T10:33:11.931Z,2.39
2022-12-11T10:36:00.966Z,2.39
2022-12-11T10:38:42.903Z,2.39
2022-12-11T10:41:21.174Z,2.40
2022-12-11T10:43:50.801Z,2.39
2022-12-11T10:46:22.696Z,2.42
2022-12-11T10:49:02.794Z,2.45
2022-12-11T10:51:38.627Z,2.47
2022-12-11T10:54:32.827Z,2.51
2022-12-11T10:56:57.131Z,2.48
2022-12-11T10:59:50.943Z,2.49
2022-12-11T11:02:28.322Z,2.47
2022-12-11T11:04:53.937Z,2.50
2022-12-11T11:07:24.582Z,2.52
2022-12-11T11:09:48.031Z,2.55
2022-12-11T11:12:27.437Z,2.58
2022-12-11T11:15:07.119Z,2.62
2022-12-11T11:17:35.123Z,2.67
2022-12-11T11:20:12.421Z,2.68
2022-12-11T11:22:44.786Z,2.70
2022-12-11T11:25:22.253Z,2.73
2022-12-11T11:27:51.560Z,2.75
2022-12-11T11:30:31.608Z,2.76
2022-12-11T11:33:12.758Z,2.74
2022-12-11T11:35:35.406Z,2.74
2022-12-11T11:38:10.019Z,2.76
2022-12-11T11:40:43.509Z,2.72
2022-12-11T11:43:47.872Z,2.73
2022-12-11T11:46:31.118Z,2.72
2022-12-11T11:49:34.417Z,2.71
2022-12-11T11:52:45.716Z,2.74
2022-12-11T11:55:52.051Z,2.72
2022-12-11T11:58:28.233Z,2.68
2022-12-11T12:00:55.184Z,2.66
2022-12-11T12:03:24.106Z,2.65
2022-12-11T12:06:14.892Z,2.65
2022-12-11T12:09:13.172Z,2.63
2022-12-11T12:11:52.341Z,2.56
2022-12-11T12:15:06.696Z,2.59
2022-12-11T12:17:51.972Z,2.57
2022-12-11T12:21:00.868Z,2.60
2022-12-11T12:23:53.613Z,2.56
2022-12-11T12:26:52.493Z,2.59
2022-12-11T12:29:58.423Z,2.58
2022-12-11T12:32:42.442Z,2.57
2022-12-11T12:35:36.333Z,2.61
2022-12-11T12:38:32.593Z,2.65
2022-12-11T12:41:06.927Z,2.66
2022-12-11T12:44:02.918Z,2.69
2022-12-11T12:46:38.548Z,2.71
2022-12-11T12:49:04.936Z,2.72
2022-12-11T12:51:29.167Z,2.71
2022-12-11T12:54:06.556Z,2.73
2022-12-11T12:56:35.335Z,2.76
2022-12-11T12:58:59.404Z,2.78
2022-12-11T13:01:26.153Z,2.83
2022-12-11T13:04:16.758Z,2.86
2022-12-11T13:06:50.262Z,2.85
2022-12-11T13:09:22.143Z,2.88
2022-12-11T13:11:47.024Z,2.94
2022-12-11T13:14:15.680Z,2.98
2022-12-11T13:16:42.259Z,3.00
2022-12-11T13:19:25.728Z,3.02
2022-12-11T13:22:16.887Z,3.04
2022-12-11T13:25:17.068Z,3.03
2022-12-11T13:27:43.797Z,3.00
2022-12-11T13:30:26.914Z,2.97
2022-12-11T13:33:15.001Z,2.97
2022-12-11T13:35:37.852Z,2.97
2022-12-11T13:38:08.539Z,2.97
2022-12-11T13:40:40.328Z,2.95
2022-12-11T13:43:08.887Z,2.93
2022-12-11T13:45:51.043Z,2.91
2022-12-11T13:48:39.691Z,2.92
2022-12-11T13:51:02.908Z,2.90
2022-12-11T13:53:25.568Z,2.86
2022-12-11T13:55:58.740Z,2.87
2022-12-11T13:58:23.584Z,2.89
2022-12-11T14:01:08.068Z,2.92
2022-12-11T14:03:32.853Z,2.93
2022-12-11T14:05:55.530Z,2.92
2022-12-11T14:08:32.999Z,2.93
2022-12-11T14:10:55.870Z,2.90
2022-12-11T14:13:24.344Z,2.90
2022-12-11T14:15:47.060Z,2.91
2022-12-11T14:18:24.786Z,2.92
2022-12-11T14:20:59.047Z,2.92
2022-12-11T14:23:25.796Z,2.88
2022-12-11T14:26:04.436Z,2.86
2022-12-11T14:28:30.706Z,2.86
2022-12-11T14:30:55.686Z,2.86
2022-12-11T14:33:22.609Z,2.87
2022-12-11T14:35:47.406Z,2.88
2022-12-11T14:38:44.689Z,2.87
2022-12-11T14:41:47.784Z,2.85
2022-12-11T14:44:17.010Z,2.84
2022-12-11T14:46:50.521Z,2.81
2022-12-11T14:49:40.422Z,2.78
2022-12-11T14:52:05.074Z,2.76
2022-12-11T14:54:40.402Z,2.75
2022-12-11T14:57:06.753Z,2.72
2022-12-11T14:59:32.461Z,2.73
2022-12-11T15:02:01.808Z,2.71
2022-12-11T15:04:31.008Z,2.69
2022-12-11T15:06:53.582Z,2.68
2022-12-11T15:09:38.268Z,2.67
2022-12-11T15:12:15.519Z,2.65
2022-12-11T15:14:51.301Z,2.65
2022-12-11T15:17:15.941Z,2.64
2022-12-11T15:19:40.174Z,2.63
2022-12-11T15:22:08.773Z,2.62
2022-12-11T15:24:35.241Z,2.62
2022-12-11T15:27:01.230Z,2.59
2022-12-11T15:29:40.538Z,2.57
2022-12-11T15:32:08.718Z,2.57
2022-12-11T15:34:59.941Z,2.55
2022-12-11T15:37:27.923Z,2.51
2022-12-11T15:39:51.011Z,2.49
2022-12-11T15:42:29.308Z,2.47
2022-12-11T15:44:52.118Z,2.45
2022-12-11T15:47:26.890Z,2.45
2022-12-11T15:49:48.900Z,2.41
2022-12-11T18:37:54.061Z,1.94
